My Meet Scores
Zoe Eiseman, Gym Stars ETC - MyMeetScores.com
Top100 | Top Teams | Upcoming Meets | Completed Meets | Latest | Add Scores | Help| Support | Bookmark and Share

Zoe Eiseman, Gym Stars ETC
Personal Bests
LevelVault BarsBeamFloorAA
XB9.6009.725 9.3509.25037.550
XG9.3759.650 9.4259.50037.050
XS9.7259.825 9.4759.55038.525
Meet Scores
Date Meet Team Session Level Division Vault Bars Beam Floor AA
2020-02-14 Midwest Open Gym Stars ETC 12A XG Junior A 9.375 1T 9.350 3 8.825 5 9.500 1 37.050 1
2020-01-24 Uga Invitational Gym Stars ETC 8A XG Child 8.675 9T 9.375 1 9.425 6 9.425 3 36.900 3
2019-12-20 2019 Women's Hawaiian Pineapple Classic Gym Stars ETC 7B XG Age 11 9.150 3 9.375 2T 8.550 11 8.750 6T 35.825 4
2019-12-06 Ultimate Wish Classic Gym Stars ETC 8B XG JR 8.700 4 9.650 1 8.950 6 9.200 9 36.500 1
2019-11-08 Illinois Judges Cup Gym Stars ETC G3 XG All Ages 8.400 11 9.350 2 8.800 8T 9.125 11 35.675 5
2019-05-03 2019 Region 5 Xcel Championships Gym Stars ETC 11O XS CH G 9.175 11T 9.425 16T 9.475 9T 9.500 5T 37.575 7
2019-04-13 2019 Illinois XB, XS State Championships Gym Stars ETC 5 XS Jr A 9.725 1 9.825 3 9.425 14 9.550 5T 38.525 1
2019-03-08 Lucky Invite Gym Stars ETC B09 XS Jr A 9.450 3 9.600 4T 9.400 12T 9.350 7T 37.800 4
2019-02-15 Women's Midwest Open Gym Stars ETC 13 XS Junior A 9.250 3 9.500 4T 9.350 5 9.475 5 37.575 3T
2019-02-01 St. Valentines Classic Gym Stars ETC 4B XS 10 yrs. 8.950 10 9.075 5 9.150 9 8.800 10T 35.975 9
2019-01-11 St Jude Benefit Meet Gym Stars ETC 8C XS Jr B 9.025 5 9.575 5T 9.150 11 9.075 7 36.825 4
2018-12-14 Hawaiian Pineapple Classic Gym Stars ETC 9A XS Age10 9.375 1 9.500 1 9.250 5T 9.000 3T 37.125 2
2018-11-17 Paul Hamm Thanksgiving Class WOMENS Gym Stars ETC 8 XS Younger 9.100 5 9.800 1 9.275 3 9.125 6T 37.300 2T
2018-04-26 Xcel Region 5 Championships Gym Stars ETC 5B XS Ch C 9.275 6 9.700 4 9.100 21 9.200 15 37.275 9
2018-04-06 XCEL State Championships Gym Stars ETC 2A XS Ch B 9.450 5T 9.400 7T 9.175 21T 9.050 18T 37.075 10
2018-03-09 Lucky Invitational Gym Stars ETC B09 XS Jr A 9.100 2 9.700 3 8.425 17 8.075 18 35.300 16
2018-01-12 St Jude Benefit Meet Gym Stars ETC 9C XS JrA 9.075 5 9.450 2T 9.200 11 9.375 1T 37.100 3
2017-12-14 2017 Women's Hawaiian Pineapple Classic Gym Stars ETC 3A XS Ages9U 8.800 4 9.325 4 8.900 6 9.400 5 36.425 2
2017-11-17 SCGA Classic Gym Stars ETC 4 XS JrA 9.000 6 9.650 2 8.825 9 8.800 9 36.275 4
2017-04-21 2017 Illinois Xcel State Championships Gym Stars ETC 9 XB Jr 9.600 5 9.600 1 9.175 13T 9.175 12T 37.550 1T
2017-03-10 Lucky Invitational Gym Stars ETC B04 XB Jr A 9.125 6 9.675 1T 9.150 10T 9.250 3T 37.200 4
2017-02-24 Kinetic Classic Gym Stars ETC 7 XB All 9.200 3 9.675 1 9.025 2T 8.900 3T 36.800 2
2017-02-10 IGI Chicago Style Gymnastics Meet Gym Stars ETC 223L XB JrB 9.250 1 9.725 1 9.000 5 9.000 3 36.975 1
2017-01-20 2017 Bravo Classic Gym Stars ETC 09B XB 6-8yrs 9.050 6 9.500 5 9.350 6 9.000 8 36.900 6
Get your scores on
a t-shirt, pin, or hoodie

www.lazysuits.com